sensor_id;sensor_type;location;lat;lon;timestamp;P1;durP1;ratioP1;P2;durP2;ratioP2
66139;SDS011;52945;51.908;8.364;2022-12-29T00:02:39;2.30;;;0.80;;
66139;SDS011;52945;51.908;8.364;2022-12-29T00:05:40;1.77;;;1.10;;
66139;SDS011;52945;51.908;8.364;2022-12-29T00:08:41;1.63;;;1.00;;
66139;SDS011;52945;51.908;8.364;2022-12-29T00:11:41;1.20;;;0.85;;
66139;SDS011;52945;51.908;8.364;2022-12-29T00:14:42;1.45;;;0.93;;
66139;SDS011;52945;51.908;8.364;2022-12-29T00:18:01;1.38;;;0.80;;
66139;SDS011;52945;51.908;8.364;2022-12-29T00:21:02;1.35;;;0.73;;
66139;SDS011;52945;51.908;8.364;2022-12-29T00:24:21;1.13;;;0.80;;
66139;SDS011;52945;51.908;8.364;2022-12-29T00:27:22;2.20;;;0.80;;
66139;SDS011;52945;51.908;8.364;2022-12-29T00:30:41;0.98;;;0.80;;
66139;SDS011;52945;51.908;8.364;2022-12-29T00:34:00;1.38;;;1.00;;
66139;SDS011;52945;51.908;8.364;2022-12-29T00:37:19;1.15;;;0.90;;
66139;SDS011;52945;51.908;8.364;2022-12-29T00:40:40;1.08;;;0.85;;
66139;SDS011;52945;51.908;8.364;2022-12-29T00:47:06;1.55;;;1.00;;
66139;SDS011;52945;51.908;8.364;2022-12-29T00:50:07;1.33;;;0.70;;
66139;SDS011;52945;51.908;8.364;2022-12-29T00:53:08;0.70;;;0.70;;
66139;SDS011;52945;51.908;8.364;2022-12-29T00:56:08;1.20;;;0.60;;
66139;SDS011;52945;51.908;8.364;2022-12-29T00:59:10;1.05;;;0.85;;
66139;SDS011;52945;51.908;8.364;2022-12-29T01:02:11;1.00;;;0.80;;
66139;SDS011;52945;51.908;8.364;2022-12-29T01:05:11;2.33;;;0.90;;
66139;SDS011;52945;51.908;8.364;2022-12-29T01:08:12;0.80;;;0.80;;
66139;SDS011;52945;51.908;8.364;2022-12-29T01:11:12;3.90;;;0.85;;
66139;SDS011;52945;51.908;8.364;2022-12-29T01:14:13;0.50;;;0.50;;
66139;SDS011;52945;51.908;8.364;2022-12-29T01:17:14;0.75;;;0.75;;
66139;SDS011;52945;51.908;8.364;2022-12-29T01:20:14;0.60;;;0.60;;
66139;SDS011;52945;51.908;8.364;2022-12-29T01:23:15;1.00;;;0.63;;
66139;SDS011;52945;51.908;8.364;2022-12-29T01:26:16;0.70;;;0.60;;
66139;SDS011;52945;51.908;8.364;2022-12-29T01:29:17;1.48;;;0.70;;
66139;SDS011;52945;51.908;8.364;2022-12-29T01:32:18;1.05;;;0.60;;
66139;SDS011;52945;51.908;8.364;2022-12-29T01:35:18;1.02;;;0.57;;
66139;SDS011;52945;51.908;8.364;2022-12-29T01:38:19;1.45;;;0.70;;
66139;SDS011;52945;51.908;8.364;2022-12-29T01:41:20;0.82;;;0.80;;
66139;SDS011;52945;51.908;8.364;2022-12-29T01:47:57;0.70;;;0.70;;
66139;SDS011;52945;51.908;8.364;2022-12-29T01:51:01;0.40;;;0.40;;
66139;SDS011;52945;51.908;8.364;2022-12-29T01:54:02;0.52;;;0.52;;
66139;SDS011;52945;51.908;8.364;2022-12-29T01:57:08;0.60;;;0.60;;
66139;SDS011;52945;51.908;8.364;2022-12-29T02:00:13;1.88;;;0.77;;
66139;SDS011;52945;51.908;8.364;2022-12-29T02:03:15;0.55;;;0.50;;
66139;SDS011;52945;51.908;8.364;2022-12-29T02:06:23;0.93;;;0.63;;
66139;SDS011;52945;51.908;8.364;2022-12-29T02:09:27;2.08;;;0.70;;
66139;SDS011;52945;51.908;8.364;2022-12-29T02:12:28;0.90;;;0.43;;
66139;SDS011;52945;51.908;8.364;2022-12-29T02:15:34;0.68;;;0.55;;
66139;SDS011;52945;51.908;8.364;2022-12-29T02:35:01;0.70;;;0.40;;
66139;SDS011;52945;51.908;8.364;2022-12-29T02:48:34;0.40;;;0.30;;
66139;SDS011;52945;51.908;8.364;2022-12-29T02:55:05;0.75;;;0.40;;
66139;SDS011;52945;51.908;8.364;2022-12-29T03:04:29;0.57;;;0.40;;
66139;SDS011;52945;51.908;8.364;2022-12-29T03:14:32;0.50;;;0.40;;
66139;SDS011;52945;51.908;8.364;2022-12-29T03:17:59;1.10;;;0.28;;
66139;SDS011;52945;51.908;8.364;2022-12-29T03:21:06;0.30;;;0.30;;
66139;SDS011;52945;51.908;8.364;2022-12-29T03:25:03;0.28;;;0.28;;
66139;SDS011;52945;51.908;8.364;2022-12-29T03:31:13;0.50;;;0.50;;
66139;SDS011;52945;51.908;8.364;2022-12-29T03:34:15;0.45;;;0.45;;
66139;SDS011;52945;51.908;8.364;2022-12-29T03:37:20;0.50;;;0.50;;
66139;SDS011;52945;51.908;8.364;2022-12-29T03:40:25;1.05;;;0.52;;
66139;SDS011;52945;51.908;8.364;2022-12-29T03:43:27;0.40;;;0.40;;
66139;SDS011;52945;51.908;8.364;2022-12-29T03:46:29;0.40;;;0.40;;
66139;SDS011;52945;51.908;8.364;2022-12-29T03:49:29;2.75;;;0.38;;
66139;SDS011;52945;51.908;8.364;2022-12-29T03:52:30;0.38;;;0.30;;
66139;SDS011;52945;51.908;8.364;2022-12-29T03:55:30;0.45;;;0.45;;
66139;SDS011;52945;51.908;8.364;2022-12-29T03:58:31;0.32;;;0.32;;
66139;SDS011;52945;51.908;8.364;2022-12-29T04:01:32;0.43;;;0.43;;
66139;SDS011;52945;51.908;8.364;2022-12-29T04:04:32;0.43;;;0.38;;
66139;SDS011;52945;51.908;8.364;2022-12-29T04:07:33;0.30;;;0.30;;
66139;SDS011;52945;51.908;8.364;2022-12-29T04:10:34;0.43;;;0.43;;
66139;SDS011;52945;51.908;8.364;2022-12-29T04:13:34;0.75;;;0.50;;
66139;SDS011;52945;51.908;8.364;2022-12-29T04:16:35;0.63;;;0.43;;
66139;SDS011;52945;51.908;8.364;2022-12-29T04:19:38;0.50;;;0.45;;
66139;SDS011;52945;51.908;8.364;2022-12-29T04:22:39;0.63;;;0.40;;
66139;SDS011;52945;51.908;8.364;2022-12-29T04:25:39;0.60;;;0.55;;
66139;SDS011;52945;51.908;8.364;2022-12-29T04:28:40;0.30;;;0.30;;
66139;SDS011;52945;51.908;8.364;2022-12-29T04:31:40;0.45;;;0.38;;
66139;SDS011;52945;51.908;8.364;2022-12-29T04:34:41;0.43;;;0.43;;
66139;SDS011;52945;51.908;8.364;2022-12-29T04:37:42;0.35;;;0.35;;
66139;SDS011;52945;51.908;8.364;2022-12-29T04:40:42;3.22;;;0.60;;
66139;SDS011;52945;51.908;8.364;2022-12-29T04:43:43;0.50;;;0.35;;
66139;SDS011;52945;51.908;8.364;2022-12-29T04:46:44;0.50;;;0.38;;
66139;SDS011;52945;51.908;8.364;2022-12-29T04:49:44;0.35;;;0.35;;
66139;SDS011;52945;51.908;8.364;2022-12-29T04:52:45;0.60;;;0.50;;
66139;SDS011;52945;51.908;8.364;2022-12-29T04:55:48;0.60;;;0.45;;
66139;SDS011;52945;51.908;8.364;2022-12-29T04:58:50;1.55;;;0.40;;
66139;SDS011;52945;51.908;8.364;2022-12-29T05:01:51;1.17;;;1.08;;
66139;SDS011;52945;51.908;8.364;2022-12-29T05:04:52;0.50;;;0.50;;
66139;SDS011;52945;51.908;8.364;2022-12-29T05:07:52;0.43;;;0.43;;
66139;SDS011;52945;51.908;8.364;2022-12-29T05:10:53;0.30;;;0.30;;
66139;SDS011;52945;51.908;8.364;2022-12-29T05:13:54;0.82;;;0.50;;
66139;SDS011;52945;51.908;8.364;2022-12-29T05:16:54;0.47;;;0.43;;
66139;SDS011;52945;51.908;8.364;2022-12-29T05:19:55;0.90;;;0.50;;
66139;SDS011;52945;51.908;8.364;2022-12-29T05:22:55;0.95;;;0.43;;
66139;SDS011;52945;51.908;8.364;2022-12-29T05:25:56;0.57;;;0.50;;
66139;SDS011;52945;51.908;8.364;2022-12-29T05:28:56;0.80;;;0.45;;
66139;SDS011;52945;51.908;8.364;2022-12-29T05:31:57;0.40;;;0.40;;
66139;SDS011;52945;51.908;8.364;2022-12-29T05:34:58;0.22;;;0.22;;
66139;SDS011;52945;51.908;8.364;2022-12-29T05:37:58;0.73;;;0.40;;
66139;SDS011;52945;51.908;8.364;2022-12-29T05:40:59;1.55;;;0.60;;
66139;SDS011;52945;51.908;8.364;2022-12-29T05:44:00;2.17;;;0.52;;
66139;SDS011;52945;51.908;8.364;2022-12-29T05:47:00;0.32;;;0.32;;
66139;SDS011;52945;51.908;8.364;2022-12-29T05:50:01;0.63;;;0.60;;
66139;SDS011;52945;51.908;8.364;2022-12-29T05:53:02;0.50;;;0.50;;
66139;SDS011;52945;51.908;8.364;2022-12-29T05:56:02;1.13;;;0.40;;
66139;SDS011;52945;51.908;8.364;2022-12-29T05:59:03;0.95;;;0.60;;
66139;SDS011;52945;51.908;8.364;2022-12-29T06:02:04;0.32;;;0.32;;
66139;SDS011;52945;51.908;8.364;2022-12-29T06:05:04;0.50;;;0.50;;
66139;SDS011;52945;51.908;8.364;2022-12-29T06:08:05;0.73;;;0.50;;
66139;SDS011;52945;51.908;8.364;2022-12-29T06:11:06;0.40;;;0.40;;
66139;SDS011;52945;51.908;8.364;2022-12-29T06:14:07;0.50;;;0.50;;
66139;SDS011;52945;51.908;8.364;2022-12-29T06:17:07;0.70;;;0.43;;
66139;SDS011;52945;51.908;8.364;2022-12-29T06:20:08;0.50;;;0.50;;
66139;SDS011;52945;51.908;8.364;2022-12-29T06:23:10;0.65;;;0.52;;
66139;SDS011;52945;51.908;8.364;2022-12-29T06:26:13;0.63;;;0.60;;
66139;SDS011;52945;51.908;8.364;2022-12-29T06:29:13;0.50;;;0.50;;
66139;SDS011;52945;51.908;8.364;2022-12-29T06:32:17;3.00;;;0.90;;
66139;SDS011;52945;51.908;8.364;2022-12-29T06:35:17;0.70;;;0.70;;
66139;SDS011;52945;51.908;8.364;2022-12-29T06:38:18;0.40;;;0.40;;
66139;SDS011;52945;51.908;8.364;2022-12-29T06:41:19;0.60;;;0.60;;
66139;SDS011;52945;51.908;8.364;2022-12-29T06:47:21;0.98;;;0.60;;
66139;SDS011;52945;51.908;8.364;2022-12-29T06:50:22;0.68;;;0.68;;
66139;SDS011;52945;51.908;8.364;2022-12-29T06:53:22;0.68;;;0.68;;
66139;SDS011;52945;51.908;8.364;2022-12-29T06:56:23;0.60;;;0.60;;
66139;SDS011;52945;51.908;8.364;2022-12-29T06:59:23;0.60;;;0.60;;
66139;SDS011;52945;51.908;8.364;2022-12-29T07:02:24;0.60;;;0.60;;
66139;SDS011;52945;51.908;8.364;2022-12-29T07:05:25;0.98;;;0.57;;
66139;SDS011;52945;51.908;8.364;2022-12-29T07:08:27;1.40;;;0.60;;
66139;SDS011;52945;51.908;8.364;2022-12-29T07:11:28;0.57;;;0.50;;
66139;SDS011;52945;51.908;8.364;2022-12-29T07:14:28;0.40;;;0.40;;
66139;SDS011;52945;51.908;8.364;2022-12-29T07:17:29;0.50;;;0.50;;
66139;SDS011;52945;51.908;8.364;2022-12-29T07:20:30;0.98;;;0.52;;
66139;SDS011;52945;51.908;8.364;2022-12-29T07:23:30;0.68;;;0.60;;
66139;SDS011;52945;51.908;8.364;2022-12-29T07:26:31;3.47;;;0.80;;
66139;SDS011;52945;51.908;8.364;2022-12-29T07:29:32;2.08;;;0.82;;
66139;SDS011;52945;51.908;8.364;2022-12-29T07:32:33;0.55;;;0.55;;
66139;SDS011;52945;51.908;8.364;2022-12-29T07:35:34;1.90;;;0.70;;
66139;SDS011;52945;51.908;8.364;2022-12-29T07:38:35;0.90;;;0.80;;
66139;SDS011;52945;51.908;8.364;2022-12-29T07:41:35;1.88;;;0.80;;
66139;SDS011;52945;51.908;8.364;2022-12-29T07:44:36;2.05;;;0.70;;
66139;SDS011;52945;51.908;8.364;2022-12-29T07:47:36;1.58;;;0.82;;
66139;SDS011;52945;51.908;8.364;2022-12-29T07:50:37;1.20;;;0.70;;
66139;SDS011;52945;51.908;8.364;2022-12-29T07:53:37;0.85;;;0.65;;
66139;SDS011;52945;51.908;8.364;2022-12-29T07:56:38;1.02;;;0.75;;
66139;SDS011;52945;51.908;8.364;2022-12-29T07:59:39;1.20;;;0.77;;
66139;SDS011;52945;51.908;8.364;2022-12-29T08:02:39;0.65;;;0.60;;
66139;SDS011;52945;51.908;8.364;2022-12-29T08:05:40;0.80;;;0.80;;
66139;SDS011;52945;51.908;8.364;2022-12-29T08:08:40;1.50;;;0.75;;
66139;SDS011;52945;51.908;8.364;2022-12-29T08:11:41;1.30;;;0.60;;
66139;SDS011;52945;51.908;8.364;2022-12-29T08:14:43;2.05;;;0.70;;
66139;SDS011;52945;51.908;8.364;2022-12-29T08:17:43;0.90;;;0.80;;
66139;SDS011;52945;51.908;8.364;2022-12-29T08:20:44;2.55;;;0.73;;
66139;SDS011;52945;51.908;8.364;2022-12-29T08:23:44;1.73;;;0.60;;
66139;SDS011;52945;51.908;8.364;2022-12-29T08:26:45;2.05;;;0.90;;
66139;SDS011;52945;51.908;8.364;2022-12-29T08:29:45;0.75;;;0.55;;
66139;SDS011;52945;51.908;8.364;2022-12-29T08:32:46;4.32;;;0.93;;
66139;SDS011;52945;51.908;8.364;2022-12-29T08:35:47;1.95;;;0.88;;
66139;SDS011;52945;51.908;8.364;2022-12-29T08:38:48;0.80;;;0.80;;
66139;SDS011;52945;51.908;8.364;2022-12-29T08:41:48;3.00;;;0.85;;
66139;SDS011;52945;51.908;8.364;2022-12-29T08:44:49;0.60;;;0.60;;
66139;SDS011;52945;51.908;8.364;2022-12-29T08:47:49;1.00;;;0.70;;
66139;SDS011;52945;51.908;8.364;2022-12-29T08:50:50;1.50;;;0.68;;
66139;SDS011;52945;51.908;8.364;2022-12-29T08:53:51;2.63;;;0.80;;
66139;SDS011;52945;51.908;8.364;2022-12-29T08:56:52;0.85;;;0.85;;
66139;SDS011;52945;51.908;8.364;2022-12-29T08:59:53;0.60;;;0.60;;
66139;SDS011;52945;51.908;8.364;2022-12-29T09:02:54;2.42;;;0.82;;
66139;SDS011;52945;51.908;8.364;2022-12-29T09:05:54;2.58;;;1.00;;
66139;SDS011;52945;51.908;8.364;2022-12-29T09:08:55;1.52;;;1.13;;
66139;SDS011;52945;51.908;8.364;2022-12-29T09:11:56;1.13;;;1.00;;
66139;SDS011;52945;51.908;8.364;2022-12-29T09:14:56;1.88;;;1.05;;
66139;SDS011;52945;51.908;8.364;2022-12-29T09:17:57;3.13;;;1.35;;
66139;SDS011;52945;51.908;8.364;2022-12-29T09:20:58;1.83;;;0.95;;
66139;SDS011;52945;51.908;8.364;2022-12-29T09:23:59;1.63;;;1.00;;
66139;SDS011;52945;51.908;8.364;2022-12-29T09:27:00;2.58;;;1.10;;
66139;SDS011;52945;51.908;8.364;2022-12-29T09:30:01;1.52;;;0.75;;
66139;SDS011;52945;51.908;8.364;2022-12-29T09:33:06;2.17;;;0.63;;
66139;SDS011;52945;51.908;8.364;2022-12-29T09:36:08;5.35;;;0.90;;
66139;SDS011;52945;51.908;8.364;2022-12-29T09:39:09;1.33;;;0.73;;
66139;SDS011;52945;51.908;8.364;2022-12-29T09:45:18;3.65;;;0.88;;
66139;SDS011;52945;51.908;8.364;2022-12-29T09:48:29;1.67;;;0.80;;
66139;SDS011;52945;51.908;8.364;2022-12-29T09:51:35;4.03;;;0.80;;
66139;SDS011;52945;51.908;8.364;2022-12-29T09:57:47;4.28;;;0.82;;
66139;SDS011;52945;51.908;8.364;2022-12-29T10:01:04;3.00;;;0.88;;
66139;SDS011;52945;51.908;8.364;2022-12-29T10:04:07;1.02;;;0.60;;
66139;SDS011;52945;51.908;8.364;2022-12-29T10:07:11;1.25;;;0.82;;
66139;SDS011;52945;51.908;8.364;2022-12-29T10:23:32;2.33;;;0.65;;
66139;SDS011;52945;51.908;8.364;2022-12-29T10:26:41;1.25;;;0.95;;
66139;SDS011;52945;51.908;8.364;2022-12-29T10:29:45;3.78;;;0.82;;
66139;SDS011;52945;51.908;8.364;2022-12-29T10:32:51;1.85;;;0.80;;
66139;SDS011;52945;51.908;8.364;2022-12-29T10:35:58;2.85;;;0.70;;
66139;SDS011;52945;51.908;8.364;2022-12-29T10:39:16;3.97;;;0.90;;
66139;SDS011;52945;51.908;8.364;2022-12-29T10:42:35;1.33;;;0.68;;
66139;SDS011;52945;51.908;8.364;2022-12-29T10:45:40;2.65;;;0.65;;
66139;SDS011;52945;51.908;8.364;2022-12-29T10:48:41;1.33;;;0.70;;
66139;SDS011;52945;51.908;8.364;2022-12-29T10:51:46;0.90;;;0.50;;
66139;SDS011;52945;51.908;8.364;2022-12-29T10:54:49;2.15;;;0.60;;
66139;SDS011;52945;51.908;8.364;2022-12-29T10:57:54;3.00;;;0.70;;
66139;SDS011;52945;51.908;8.364;2022-12-29T11:00:59;2.20;;;0.75;;
66139;SDS011;52945;51.908;8.364;2022-12-29T11:04:14;1.27;;;0.65;;
66139;SDS011;52945;51.908;8.364;2022-12-29T11:07:31;4.35;;;0.70;;
66139;SDS011;52945;51.908;8.364;2022-12-29T11:10:35;2.17;;;0.80;;
66139;SDS011;52945;51.908;8.364;2022-12-29T11:13:49;1.30;;;0.73;;
66139;SDS011;52945;51.908;8.364;2022-12-29T11:19:59;6.30;;;1.05;;
66139;SDS011;52945;51.908;8.364;2022-12-29T11:23:23;2.60;;;0.70;;
66139;SDS011;52945;51.908;8.364;2022-12-29T11:26:33;1.52;;;0.90;;
66139;SDS011;52945;51.908;8.364;2022-12-29T11:29:38;2.72;;;0.93;;
66139;SDS011;52945;51.908;8.364;2022-12-29T11:32:40;3.50;;;0.70;;
66139;SDS011;52945;51.908;8.364;2022-12-29T11:35:51;0.70;;;0.63;;
66139;SDS011;52945;51.908;8.364;2022-12-29T11:38:58;3.88;;;0.68;;
66139;SDS011;52945;51.908;8.364;2022-12-29T11:41:59;2.38;;;0.65;;
66139;SDS011;52945;51.908;8.364;2022-12-29T11:45:18;3.55;;;0.88;;
66139;SDS011;52945;51.908;8.364;2022-12-29T11:48:21;1.50;;;0.70;;
66139;SDS011;52945;51.908;8.364;2022-12-29T11:51:44;1.05;;;0.57;;
66139;SDS011;52945;51.908;8.364;2022-12-29T11:54:47;3.58;;;1.08;;
66139;SDS011;52945;51.908;8.364;2022-12-29T11:57:47;2.17;;;0.82;;
66139;SDS011;52945;51.908;8.364;2022-12-29T12:00:50;2.42;;;0.77;;
66139;SDS011;52945;51.908;8.364;2022-12-29T12:07:13;1.85;;;0.75;;
66139;SDS011;52945;51.908;8.364;2022-12-29T12:14:18;1.95;;;0.82;;
66139;SDS011;52945;51.908;8.364;2022-12-29T12:17:25;3.65;;;0.60;;
66139;SDS011;52945;51.908;8.364;2022-12-29T12:20:57;4.95;;;0.70;;
66139;SDS011;52945;51.908;8.364;2022-12-29T12:24:26;2.45;;;0.73;;
66139;SDS011;52945;51.908;8.364;2022-12-29T12:27:43;4.03;;;0.68;;
66139;SDS011;52945;51.908;8.364;2022-12-29T12:33:58;1.48;;;0.75;;
66139;SDS011;52945;51.908;8.364;2022-12-29T12:40:26;3.78;;;0.80;;
66139;SDS011;52945;51.908;8.364;2022-12-29T12:44:00;1.02;;;0.68;;
66139;SDS011;52945;51.908;8.364;2022-12-29T12:58:07;2.80;;;0.80;;
66139;SDS011;52945;51.908;8.364;2022-12-29T13:04:42;2.67;;;1.02;;
66139;SDS011;52945;51.908;8.364;2022-12-29T13:11:36;1.02;;;0.90;;
66139;SDS011;52945;51.908;8.364;2022-12-29T13:14:55;2.47;;;0.80;;
66139;SDS011;52945;51.908;8.364;2022-12-29T13:21:54;2.45;;;1.02;;
66139;SDS011;52945;51.908;8.364;2022-12-29T13:28:22;3.15;;;0.90;;
66139;SDS011;52945;51.908;8.364;2022-12-29T13:31:34;0.95;;;0.93;;
66139;SDS011;52945;51.908;8.364;2022-12-29T13:38:41;2.20;;;0.75;;
66139;SDS011;52945;51.908;8.364;2022-12-29T13:41:48;2.90;;;1.23;;
66139;SDS011;52945;51.908;8.364;2022-12-29T13:45:00;2.38;;;1.02;;
66139;SDS011;52945;51.908;8.364;2022-12-29T13:48:19;3.25;;;1.10;;
66139;SDS011;52945;51.908;8.364;2022-12-29T13:51:24;1.90;;;0.80;;
66139;SDS011;52945;51.908;8.364;2022-12-29T13:54:43;3.53;;;0.82;;
66139;SDS011;52945;51.908;8.364;2022-12-29T14:01:26;1.77;;;1.10;;
66139;SDS011;52945;51.908;8.364;2022-12-29T14:04:34;2.40;;;1.00;;
66139;SDS011;52945;51.908;8.364;2022-12-29T14:10:38;1.63;;;0.82;;
66139;SDS011;52945;51.908;8.364;2022-12-29T14:13:47;2.60;;;0.95;;
66139;SDS011;52945;51.908;8.364;2022-12-29T14:19:51;2.63;;;0.93;;
66139;SDS011;52945;51.908;8.364;2022-12-29T14:22:57;3.10;;;0.90;;
66139;SDS011;52945;51.908;8.364;2022-12-29T14:26:45;3.95;;;1.15;;
66139;SDS011;52945;51.908;8.364;2022-12-29T14:35:38;5.25;;;1.08;;
66139;SDS011;52945;51.908;8.364;2022-12-29T14:38:46;4.65;;;0.95;;
66139;SDS011;52945;51.908;8.364;2022-12-29T14:41:48;3.83;;;0.98;;
66139;SDS011;52945;51.908;8.364;2022-12-29T14:45:00;3.08;;;1.08;;
66139;SDS011;52945;51.908;8.364;2022-12-29T14:51:43;2.17;;;1.27;;
66139;SDS011;52945;51.908;8.364;2022-12-29T14:54:46;4.28;;;1.38;;
66139;SDS011;52945;51.908;8.364;2022-12-29T14:57:50;6.97;;;1.52;;
66139;SDS011;52945;51.908;8.364;2022-12-29T15:00:53;2.13;;;0.93;;
66139;SDS011;52945;51.908;8.364;2022-12-29T15:03:59;1.75;;;0.95;;
66139;SDS011;52945;51.908;8.364;2022-12-29T15:07:07;4.60;;;0.90;;
66139;SDS011;52945;51.908;8.364;2022-12-29T15:10:13;2.97;;;0.95;;
66139;SDS011;52945;51.908;8.364;2022-12-29T15:13:17;5.85;;;1.02;;
66139;SDS011;52945;51.908;8.364;2022-12-29T15:19:26;3.83;;;0.90;;
66139;SDS011;52945;51.908;8.364;2022-12-29T15:22:28;3.22;;;0.75;;
66139;SDS011;52945;51.908;8.364;2022-12-29T15:25:30;2.58;;;1.05;;
66139;SDS011;52945;51.908;8.364;2022-12-29T15:28:38;1.83;;;0.80;;
66139;SDS011;52945;51.908;8.364;2022-12-29T15:31:46;4.30;;;0.80;;
66139;SDS011;52945;51.908;8.364;2022-12-29T15:34:50;1.45;;;0.85;;
66139;SDS011;52945;51.908;8.364;2022-12-29T15:37:53;2.00;;;0.88;;
66139;SDS011;52945;51.908;8.364;2022-12-29T15:40:55;4.40;;;1.20;;
66139;SDS011;52945;51.908;8.364;2022-12-29T15:47:04;3.63;;;0.98;;
66139;SDS011;52945;51.908;8.364;2022-12-29T15:50:15;0.57;;;0.57;;
66139;SDS011;52945;51.908;8.364;2022-12-29T15:53:34;2.13;;;1.08;;
66139;SDS011;52945;51.908;8.364;2022-12-29T15:56:35;2.35;;;0.80;;
66139;SDS011;52945;51.908;8.364;2022-12-29T15:59:35;2.03;;;1.00;;
66139;SDS011;52945;51.908;8.364;2022-12-29T16:02:36;2.25;;;0.82;;
66139;SDS011;52945;51.908;8.364;2022-12-29T16:05:37;2.70;;;1.13;;
66139;SDS011;52945;51.908;8.364;2022-12-29T16:08:39;5.00;;;1.00;;
66139;SDS011;52945;51.908;8.364;2022-12-29T16:11:40;2.08;;;0.65;;
66139;SDS011;52945;51.908;8.364;2022-12-29T16:14:58;2.47;;;1.02;;
66139;SDS011;52945;51.908;8.364;2022-12-29T16:18:01;2.47;;;0.95;;
66139;SDS011;52945;51.908;8.364;2022-12-29T16:21:03;3.38;;;1.08;;
66139;SDS011;52945;51.908;8.364;2022-12-29T16:24:06;2.17;;;1.08;;
66139;SDS011;52945;51.908;8.364;2022-12-29T16:27:19;5.28;;;1.33;;
66139;SDS011;52945;51.908;8.364;2022-12-29T16:30:23;3.90;;;0.90;;
66139;SDS011;52945;51.908;8.364;2022-12-29T16:33:31;7.03;;;1.02;;
66139;SDS011;52945;51.908;8.364;2022-12-29T16:36:57;1.75;;;0.77;;
66139;SDS011;52945;51.908;8.364;2022-12-29T16:46:31;1.70;;;0.75;;
66139;SDS011;52945;51.908;8.364;2022-12-29T16:49:32;2.33;;;0.98;;
66139;SDS011;52945;51.908;8.364;2022-12-29T16:52:34;1.45;;;0.88;;
66139;SDS011;52945;51.908;8.364;2022-12-29T16:55:34;2.80;;;0.77;;
66139;SDS011;52945;51.908;8.364;2022-12-29T16:58:35;1.65;;;0.85;;
66139;SDS011;52945;51.908;8.364;2022-12-29T17:04:38;1.23;;;0.85;;
66139;SDS011;52945;51.908;8.364;2022-12-29T17:07:38;2.85;;;0.85;;
66139;SDS011;52945;51.908;8.364;2022-12-29T17:10:39;3.25;;;0.68;;
66139;SDS011;52945;51.908;8.364;2022-12-29T17:13:59;1.38;;;0.73;;
66139;SDS011;52945;51.908;8.364;2022-12-29T17:16:59;2.85;;;0.80;;
66139;SDS011;52945;51.908;8.364;2022-12-29T17:23:05;2.45;;;0.80;;
66139;SDS011;52945;51.908;8.364;2022-12-29T17:26:14;2.38;;;0.63;;
66139;SDS011;52945;51.908;8.364;2022-12-29T17:29:35;1.65;;;0.70;;
66139;SDS011;52945;51.908;8.364;2022-12-29T17:32:38;0.85;;;0.70;;
66139;SDS011;52945;51.908;8.364;2022-12-29T17:35:41;4.05;;;0.77;;
66139;SDS011;52945;51.908;8.364;2022-12-29T17:38:41;3.90;;;0.85;;
66139;SDS011;52945;51.908;8.364;2022-12-29T17:41:42;2.67;;;1.00;;
66139;SDS011;52945;51.908;8.364;2022-12-29T17:44:43;4.22;;;1.10;;
66139;SDS011;52945;51.908;8.364;2022-12-29T17:47:44;3.42;;;1.27;;
66139;SDS011;52945;51.908;8.364;2022-12-29T17:50:46;3.63;;;1.10;;
66139;SDS011;52945;51.908;8.364;2022-12-29T17:53:48;3.10;;;0.95;;
66139;SDS011;52945;51.908;8.364;2022-12-29T17:56:51;2.88;;;0.90;;
66139;SDS011;52945;51.908;8.364;2022-12-29T17:59:51;2.20;;;0.98;;
66139;SDS011;52945;51.908;8.364;2022-12-29T18:02:52;1.40;;;0.90;;
66139;SDS011;52945;51.908;8.364;2022-12-29T18:05:54;3.53;;;0.95;;
66139;SDS011;52945;51.908;8.364;2022-12-29T18:08:55;3.85;;;1.08;;
66139;SDS011;52945;51.908;8.364;2022-12-29T18:11:55;4.80;;;0.90;;
66139;SDS011;52945;51.908;8.364;2022-12-29T18:14:56;1.55;;;1.00;;
66139;SDS011;52945;51.908;8.364;2022-12-29T18:17:58;6.25;;;1.20;;
66139;SDS011;52945;51.908;8.364;2022-12-29T18:21:20;3.30;;;1.17;;
66139;SDS011;52945;51.908;8.364;2022-12-29T18:24:22;4.97;;;1.10;;
66139;SDS011;52945;51.908;8.364;2022-12-29T18:27:23;4.35;;;0.98;;
66139;SDS011;52945;51.908;8.364;2022-12-29T18:30:23;3.22;;;1.10;;
66139;SDS011;52945;51.908;8.364;2022-12-29T18:33:24;5.05;;;1.38;;
66139;SDS011;52945;51.908;8.364;2022-12-29T18:36:25;3.83;;;1.00;;
66139;SDS011;52945;51.908;8.364;2022-12-29T18:39:26;2.75;;;1.15;;
66139;SDS011;52945;51.908;8.364;2022-12-29T18:42:27;3.30;;;1.30;;
66139;SDS011;52945;51.908;8.364;2022-12-29T18:45:29;8.07;;;0.85;;
66139;SDS011;52945;51.908;8.364;2022-12-29T18:48:31;1.13;;;0.60;;
66139;SDS011;52945;51.908;8.364;2022-12-29T18:51:32;1.30;;;1.08;;
66139;SDS011;52945;51.908;8.364;2022-12-29T18:54:32;0.93;;;0.82;;
66139;SDS011;52945;51.908;8.364;2022-12-29T18:57:33;2.67;;;0.80;;
66139;SDS011;52945;51.908;8.364;2022-12-29T19:00:33;1.25;;;0.75;;
66139;SDS011;52945;51.908;8.364;2022-12-29T19:03:34;2.33;;;1.00;;
66139;SDS011;52945;51.908;8.364;2022-12-29T19:06:34;1.88;;;0.75;;
66139;SDS011;52945;51.908;8.364;2022-12-29T19:09:36;2.25;;;0.75;;
66139;SDS011;52945;51.908;8.364;2022-12-29T19:12:37;2.45;;;1.05;;
66139;SDS011;52945;51.908;8.364;2022-12-29T19:15:37;0.68;;;0.60;;
66139;SDS011;52945;51.908;8.364;2022-12-29T19:18:38;2.60;;;1.00;;
66139;SDS011;52945;51.908;8.364;2022-12-29T19:21:39;0.70;;;0.70;;
66139;SDS011;52945;51.908;8.364;2022-12-29T19:24:39;1.55;;;0.80;;
66139;SDS011;52945;51.908;8.364;2022-12-29T19:27:40;2.05;;;0.77;;
66139;SDS011;52945;51.908;8.364;2022-12-29T19:30:40;0.55;;;0.55;;
66139;SDS011;52945;51.908;8.364;2022-12-29T19:33:41;0.77;;;0.73;;
66139;SDS011;52945;51.908;8.364;2022-12-29T19:36:42;2.25;;;0.57;;
66139;SDS011;52945;51.908;8.364;2022-12-29T19:39:43;1.77;;;1.10;;
66139;SDS011;52945;51.908;8.364;2022-12-29T19:42:45;2.15;;;0.80;;
66139;SDS011;52945;51.908;8.364;2022-12-29T19:45:46;1.40;;;0.65;;
66139;SDS011;52945;51.908;8.364;2022-12-29T19:48:46;4.72;;;0.88;;
66139;SDS011;52945;51.908;8.364;2022-12-29T19:51:47;1.52;;;0.75;;
66139;SDS011;52945;51.908;8.364;2022-12-29T19:54:47;2.28;;;0.80;;
66139;SDS011;52945;51.908;8.364;2022-12-29T19:57:48;5.38;;;1.05;;
66139;SDS011;52945;51.908;8.364;2022-12-29T20:00:49;2.85;;;1.02;;
66139;SDS011;52945;51.908;8.364;2022-12-29T20:03:50;2.47;;;1.00;;
66139;SDS011;52945;51.908;8.364;2022-12-29T20:06:51;4.65;;;0.95;;
66139;SDS011;52945;51.908;8.364;2022-12-29T20:09:52;1.30;;;1.10;;
66139;SDS011;52945;51.908;8.364;2022-12-29T20:12:52;2.97;;;1.38;;
66139;SDS011;52945;51.908;8.364;2022-12-29T20:15:56;1.83;;;0.95;;
66139;SDS011;52945;51.908;8.364;2022-12-29T20:19:01;1.48;;;0.88;;
66139;SDS011;52945;51.908;8.364;2022-12-29T20:22:03;1.17;;;0.98;;
66139;SDS011;52945;51.908;8.364;2022-12-29T20:25:06;3.90;;;1.25;;
66139;SDS011;52945;51.908;8.364;2022-12-29T20:28:07;7.57;;;1.20;;
66139;SDS011;52945;51.908;8.364;2022-12-29T20:31:13;2.83;;;0.88;;
66139;SDS011;52945;51.908;8.364;2022-12-29T20:34:19;3.13;;;1.30;;
66139;SDS011;52945;51.908;8.364;2022-12-29T20:37:20;5.05;;;1.08;;
66139;SDS011;52945;51.908;8.364;2022-12-29T20:40:21;3.25;;;1.00;;
66139;SDS011;52945;51.908;8.364;2022-12-29T20:43:22;4.45;;;1.20;;
66139;SDS011;52945;51.908;8.364;2022-12-29T20:46:22;7.20;;;1.42;;
66139;SDS011;52945;51.908;8.364;2022-12-29T20:49:24;1.70;;;0.77;;
66139;SDS011;52945;51.908;8.364;2022-12-29T20:52:25;6.55;;;1.25;;
66139;SDS011;52945;51.908;8.364;2022-12-29T20:55:26;8.20;;;1.30;;
66139;SDS011;52945;51.908;8.364;2022-12-29T20:58:27;7.40;;;1.42;;
66139;SDS011;52945;51.908;8.364;2022-12-29T21:01:27;2.00;;;1.38;;
66139;SDS011;52945;51.908;8.364;2022-12-29T21:04:28;4.40;;;1.58;;
66139;SDS011;52945;51.908;8.364;2022-12-29T21:07:28;5.95;;;1.30;;
66139;SDS011;52945;51.908;8.364;2022-12-29T21:10:29;3.42;;;1.00;;